Time;durP1;ratioP1;P1;durP2;ratioP2;P2;SDS_P1;SDS_P2;PMS_P1;PMS_P2;Temp;Humidity;BMP_temperature;BMP_pressure;BME280_temperature;BME280_humidity;BME280_pressure;Samples;Min_cycle;Max_cycle;Signal;HPM_P1;HPM_P2
2024/02/21 00:00:19;;;;;;;2.03;0.80;;;8.90;74.00;;;;;;5005156;28;20041;-76
2024/02/21 00:02:45;;;;;;;1.80;0.60;;;8.80;74.20;;;;;;5008711;28;20032;-76
2024/02/21 00:05:11;;;;;;;3.50;0.75;;;8.80;74.20;;;;;;5008366;28;20053;-76
2024/02/21 00:07:36;;;;;;;3.22;0.98;;;8.70;74.30;;;;;;5009444;28;20039;-76
2024/02/21 00:10:03;;;;;;;1.83;0.70;;;8.70;74.10;;;;;;5009379;28;20060;-76
2024/02/21 00:12:28;;;;;;;1.38;0.70;;;8.60;74.50;;;;;;5008235;28;20037;-76
2024/02/21 00:14:54;;;;;;;2.35;0.75;;;8.30;75.00;;;;;;5007420;28;20032;-76
2024/02/21 00:17:20;;;;;;;1.83;0.65;;;8.50;75.00;;;;;;5012144;28;20033;-76
2024/02/21 00:19:45;;;;;;;1.88;0.60;;;8.50;74.70;;;;;;5009800;28;20029;-76
2024/02/21 00:22:11;;;;;;;1.42;0.70;;;8.20;76.00;;;;;;5011673;28;20593;-76
2024/02/21 00:24:37;;;;;;;1.33;0.70;;;8.20;75.40;;;;;;5012529;28;20025;-75
2024/02/21 00:27:02;;;;;;;1.20;0.60;;;8.40;74.90;;;;;;5011685;28;20128;-76
2024/02/21 00:29:28;;;;;;;1.30;0.60;;;8.60;74.70;;;;;;5013901;28;20064;-76
2024/02/21 00:31:54;;;;;;;2.75;0.70;;;8.40;75.10;;;;;;5012586;28;20029;-76
2024/02/21 00:34:20;;;;;;;1.75;0.70;;;8.40;75.30;;;;;;5010926;28;20038;-76
2024/02/21 00:36:45;;;;;;;1.35;0.55;;;8.30;75.40;;;;;;5012889;28;20033;-76
2024/02/21 00:39:11;;;;;;;1.35;0.57;;;7.90;76.00;;;;;;5012734;28;20037;-76
2024/02/21 00:41:36;;;;;;;1.52;0.50;;;7.90;75.90;;;;;;5012151;28;20120;-76
2024/02/21 00:44:05;;;;;;;2.78;0.63;;;7.50;76.70;;;;;;5013666;28;20060;-76
2024/02/21 00:46:31;;;;;;;1.23;0.60;;;7.30;76.90;;;;;;5013272;28;20194;-76
2024/02/21 00:48:56;;;;;;;1.67;0.43;;;7.10;77.50;;;;;;5011760;28;20222;-76
2024/02/21 00:51:22;;;;;;;1.30;0.60;;;7.30;77.20;;;;;;5012663;28;20163;-76
2024/02/21 00:53:48;;;;;;;1.33;0.50;;;7.20;77.10;;;;;;5013689;28;20037;-76
2024/02/21 00:56:13;;;;;;;0.38;0.25;;;7.10;77.30;;;;;;5013107;28;20637;-75
2024/02/21 00:58:39;;;;;;;1.30;0.60;;;7.40;77.00;;;;;;5012518;28;20651;-76
2024/02/21 01:01:05;;;;;;;0.50;0.40;;;7.50;76.70;;;;;;5013323;28;20076;-76
2024/02/21 01:03:30;;;;;;;1.80;0.63;;;7.40;77.50;;;;;;5012188;28;20030;-76
2024/02/21 01:05:56;;;;;;;2.17;0.40;;;6.80;77.60;;;;;;5012846;28;20622;-76
2024/02/21 01:08:22;;;;;;;1.50;0.68;;;6.90;77.60;;;;;;5011353;28;20038;-76
2024/02/21 01:10:47;;;;;;;1.50;0.55;;;6.90;77.50;;;;;;5012130;28;20033;-76
2024/02/21 01:13:14;;;;;;;2.15;0.80;;;6.90;78.10;;;;;;5014309;28;20033;-76
2024/02/21 01:15:39;;;;;;;0.93;0.45;;;7.20;77.30;;;;;;5013398;28;20029;-76
2024/02/21 01:18:05;;;;;;;1.45;0.60;;;7.30;77.20;;;;;;5013035;28;20068;-76
2024/02/21 01:20:31;;;;;;;3.22;1.15;;;7.70;76.50;;;;;;5010085;28;20041;-76
2024/02/21 01:22:56;;;;;;;1.63;0.57;;;7.70;76.30;;;;;;5013805;28;20025;-76
2024/02/21 01:25:23;;;;;;;1.52;0.60;;;7.80;76.20;;;;;;5011775;28;20056;-76
2024/02/21 01:27:48;;;;;;;1.95;0.75;;;7.80;76.50;;;;;;5012238;28;20036;-76
2024/02/21 01:30:14;;;;;;;2.20;0.70;;;7.80;76.00;;;;;;5012650;28;20644;-76
2024/02/21 01:32:41;;;;;;;1.25;0.55;;;7.90;76.00;;;;;;5012740;28;20518;-76
2024/02/21 01:35:07;;;;;;;2.25;0.75;;;7.80;76.30;;;;;;5012271;28;20043;-76
2024/02/21 01:37:33;;;;;;;1.88;0.73;;;7.80;76.00;;;;;;5012719;28;20136;-76
2024/02/21 01:39:58;;;;;;;1.80;0.70;;;7.90;75.80;;;;;;5011545;28;20037;-76
2024/02/21 01:42:24;;;;;;;1.52;0.63;;;7.90;75.80;;;;;;5011883;28;20037;-76
2024/02/21 01:44:50;;;;;;;1.65;0.70;;;7.70;76.20;;;;;;5013128;28;20040;-75
2024/02/21 01:47:16;;;;;;;2.00;0.52;;;7.70;76.60;;;;;;5010579;28;20053;-75
2024/02/21 01:49:41;;;;;;;1.48;0.60;;;7.80;76.10;;;;;;5012770;28;20033;-76
2024/02/21 01:52:08;;;;;;;1.85;1.33;;;7.60;76.70;;;;;;5012530;28;20496;-76
2024/02/21 01:54:34;;;;;;;1.60;0.60;;;7.10;77.60;;;;;;5015464;28;20498;-76
2024/02/21 01:57:00;;;;;;;1.60;0.82;;;7.20;77.50;;;;;;5014133;28;20033;-76
2024/02/21 01:59:26;;;;;;;3.25;1.02;;;7.30;78.30;;;;;;5016161;28;20034;-76
2024/02/21 02:01:52;;;;;;;3.17;0.68;;;6.90;78.10;;;;;;5014854;28;20033;-76
2024/02/21 02:04:20;;;;;;;1.15;0.50;;;6.70;78.50;;;;;;5015905;28;20125;-76
2024/02/21 02:06:46;;;;;;;1.05;0.50;;;6.50;79.40;;;;;;5017710;28;20044;-76
2024/02/21 02:09:12;;;;;;;1.35;0.70;;;6.30;80.20;;;;;;5014932;28;20148;-76
2024/02/21 02:11:38;;;;;;;1.40;0.60;;;6.70;78.30;;;;;;5016240;28;20037;-76
2024/02/21 02:14:03;;;;;;;1.48;0.65;;;6.80;78.30;;;;;;5015578;28;20039;-76
2024/02/21 02:16:29;;;;;;;1.52;0.70;;;6.90;78.60;;;;;;5014682;28;20040;-76
2024/02/21 02:18:55;;;;;;;2.33;0.80;;;6.90;78.70;;;;;;5017358;28;20045;-76
2024/02/21 02:21:34;;;;;;;1.50;0.60;;;7.00;78.10;;;;;;5015770;28;20056;-76
2024/02/21 02:24:00;;;;;;;0.88;0.50;;;6.90;78.40;;;;;;5013870;28;20035;-76
2024/02/21 02:26:27;;;;;;;3.60;1.00;;;6.80;78.60;;;;;;5013094;28;20046;-76
2024/02/21 02:28:52;;;;;;;1.67;0.60;;;6.70;78.90;;;;;;5016454;28;20037;-76
2024/02/21 02:31:18;;;;;;;1.42;0.68;;;6.70;79.00;;;;;;5014169;28;20118;-76
2024/02/21 02:33:44;;;;;;;1.80;0.75;;;6.70;79.30;;;;;;5015509;28;20034;-76
2024/02/21 02:36:10;;;;;;;1.65;0.65;;;6.80;78.80;;;;;;5016308;28;20033;-75
2024/02/21 02:38:35;;;;;;;1.23;0.55;;;6.90;78.50;;;;;;5014708;28;20037;-76
2024/02/21 02:41:01;;;;;;;1.45;0.70;;;6.80;78.80;;;;;;5014100;28;20557;-76
2024/02/21 02:43:27;;;;;;;1.13;0.52;;;6.50;79.50;;;;;;5015910;28;20099;-76
2024/02/21 02:45:52;;;;;;;1.40;0.70;;;6.40;79.60;;;;;;5013879;28;20056;-76
2024/02/21 02:48:19;;;;;;;1.20;0.45;;;6.50;79.70;;;;;;5015070;28;20030;-76
2024/02/21 02:50:45;;;;;;;3.28;0.75;;;6.60;79.60;;;;;;5016248;28;20040;-76
2024/02/21 02:53:11;;;;;;;1.25;0.57;;;6.70;79.50;;;;;;5015238;28;20029;-76
2024/02/21 02:55:37;;;;;;;1.23;0.60;;;7.00;78.70;;;;;;5014657;28;20037;-76
2024/02/21 02:58:03;;;;;;;1.15;0.43;;;7.00;78.60;;;;;;5014264;28;20065;-76
2024/02/21 03:00:28;;;;;;;2.30;0.50;;;6.90;79.50;;;;;;5014991;28;20411;-76
2024/02/21 03:02:54;;;;;;;1.45;0.52;;;6.40;79.70;;;;;;5015025;28;20588;-76
2024/02/21 03:05:21;;;;;;;1.67;0.70;;;6.70;79.30;;;;;;5014065;28;20048;-76
2024/02/21 03:07:48;;;;;;;2.60;0.70;;;6.80;79.30;;;;;;5013850;28;20103;-76
2024/02/21 03:10:16;;;;;;;1.52;0.68;;;6.60;79.50;;;;;;5012530;28;20053;-76
2024/02/21 03:12:42;;;;;;;1.63;0.55;;;6.80;79.30;;;;;;5015684;28;20391;-76
2024/02/21 03:15:08;;;;;;;2.20;0.52;;;6.60;79.70;;;;;;5014179;28;20048;-76
2024/02/21 03:17:34;;;;;;;1.27;0.60;;;6.70;79.60;;;;;;5013138;28;20116;-75
2024/02/21 03:20:01;;;;;;;0.65;0.30;;;6.50;80.20;;;;;;5013382;28;20033;-76
2024/02/21 03:22:27;;;;;;;1.17;0.47;;;6.20;81.30;;;;;;5012995;28;20045;-76
2024/02/21 03:24:53;;;;;;;1.90;0.50;;;5.90;81.50;;;;;;5013395;28;20060;-76
2024/02/21 03:27:19;;;;;;;1.17;0.47;;;5.70;82.00;;;;;;5014929;28;20057;-76
2024/02/21 03:29:44;;;;;;;1.20;0.50;;;5.80;82.20;;;;;;5012886;28;20139;-76
2024/02/21 03:32:10;;;;;;;1.63;0.60;;;5.80;82.10;;;;;;5013842;28;20045;-76
2024/02/21 03:34:36;;;;;;;1.88;0.85;;;5.90;81.70;;;;;;5014272;28;20041;-76
2024/02/21 03:37:02;;;;;;;1.73;0.70;;;5.90;81.70;;;;;;5014461;28;20034;-76
2024/02/21 03:39:32;;;;;;;1.35;0.55;;;6.00;81.10;;;;;;5013762;28;20033;-76
2024/02/21 03:41:58;;;;;;;1.13;0.60;;;5.90;81.40;;;;;;5014687;28;20561;-76
2024/02/21 03:44:23;;;;;;;1.90;0.57;;;5.90;81.90;;;;;;5014850;28;20052;-76
2024/02/21 03:46:49;;;;;;;0.82;0.32;;;5.50;82.70;;;;;;5012422;28;20037;-76
2024/02/21 03:49:15;;;;;;;2.45;0.40;;;5.50;82.70;;;;;;5014207;28;20034;-76
2024/02/21 03:51:40;;;;;;;2.13;0.60;;;5.20;82.90;;;;;;5013719;28;20040;-76
2024/02/21 03:54:06;;;;;;;1.15;0.47;;;5.40;82.60;;;;;;5012367;28;20433;-76
2024/02/21 03:56:31;;;;;;;0.60;0.38;;;5.10;83.70;;;;;;5014907;28;20111;-76
2024/02/21 03:58:58;;;;;;;1.30;0.63;;;5.10;83.60;;;;;;5013465;28;20086;-76
2024/02/21 04:01:23;;;;;;;0.82;0.38;;;5.20;83.70;;;;;;5012224;28;20104;-76
2024/02/21 04:03:49;;;;;;;2.28;0.85;;;5.50;83.40;;;;;;5010370;28;20026;-77
2024/02/21 04:06:15;;;;;;;1.80;0.80;;;5.50;82.40;;;;;;5007405;28;20041;-77
2024/02/21 04:08:40;;;;;;;1.17;0.60;;;5.50;82.50;;;;;;5006589;28;20467;-76
2024/02/21 04:11:06;;;;;;;2.60;0.75;;;5.70;82.30;;;;;;5009950;28;20563;-76
2024/02/21 04:13:31;;;;;;;0.73;0.30;;;5.80;81.80;;;;;;5008954;28;20464;-76
2024/02/21 04:15:57;;;;;;;2.63;0.60;;;6.10;81.50;;;;;;5007633;28;20041;-76
2024/02/21 04:18:23;;;;;;;1.42;0.50;;;6.20;81.50;;;;;;5006333;28;20155;-76
2024/02/21 04:20:50;;;;;;;0.95;0.52;;;6.10;81.50;;;;;;5007392;28;20041;-76
2024/02/21 04:23:15;;;;;;;0.85;0.30;;;6.10;81.60;;;;;;5005420;28;20060;-76
2024/02/21 04:25:41;;;;;;;1.02;0.50;;;6.10;81.80;;;;;;5007769;28;20531;-76
2024/02/21 04:28:07;;;;;;;1.70;0.73;;;5.90;82.20;;;;;;5006431;28;20042;-76
2024/02/21 04:30:32;;;;;;;1.08;0.50;;;5.90;82.20;;;;;;5005648;28;20809;-77
2024/02/21 04:32:58;;;;;;;2.38;0.70;;;5.90;82.80;;;;;;5007601;28;20065;-76
2024/02/21 04:35:24;;;;;;;1.65;0.50;;;5.90;82.30;;;;;;5005609;28;20053;-76
2024/02/21 04:37:49;;;;;;;3.33;0.70;;;5.80;82.60;;;;;;5005611;28;20065;-76
2024/02/21 04:40:16;;;;;;;0.57;0.35;;;5.80;82.50;;;;;;5007685;28;20064;-76
2024/02/21 04:42:42;;;;;;;1.27;0.32;;;5.90;82.00;;;;;;5006867;28;20056;-76
2024/02/21 04:45:08;;;;;;;1.35;0.60;;;6.00;83.50;;;;;;5005275;28;20202;-76
2024/02/21 04:47:34;;;;;;;1.02;0.40;;;5.90;82.80;;;;;;5008279;28;20171;-76
2024/02/21 04:50:00;;;;;;;1.98;0.50;;;5.80;83.10;;;;;;5007918;28;20520;-76
2024/02/21 04:52:25;;;;;;;2.33;0.57;;;5.80;82.80;;;;;;5008526;28;20044;-76
2024/02/21 04:54:51;;;;;;;2.53;0.68;;;6.20;81.60;;;;;;5011403;28;20046;-76
2024/02/21 04:57:17;;;;;;;1.75;0.90;;;6.10;82.10;;;;;;5007568;28;20052;-76
2024/02/21 04:59:47;;;;;;;1.27;0.60;;;6.20;81.90;;;;;;5005138;28;20111;-77
2024/02/21 05:02:13;;;;;;;2.88;0.70;;;6.00;82.40;;;;;;5006655;28;20033;-76
2024/02/21 05:04:41;;;;;;;2.17;0.35;;;5.90;85.10;;;;;;5006420;28;20059;-77
2024/02/21 05:07:07;;;;;;;1.80;0.60;;;5.70;83.30;;;;;;5004323;28;20675;-76
2024/02/21 05:09:33;;;;;;;2.47;0.47;;;5.70;83.30;;;;;;5006145;28;20183;-75
2024/02/21 05:11:59;;;;;;;2.17;0.50;;;5.60;83.40;;;;;;5006493;28;20128;-76
2024/02/21 05:14:28;;;;;;;2.17;0.60;;;5.40;84.10;;;;;;5007746;28;20038;-76
2024/02/21 05:16:54;;;;;;;1.02;0.47;;;5.50;83.70;;;;;;5005167;28;20048;-76
2024/02/21 05:19:19;;;;;;;1.20;0.50;;;5.40;83.40;;;;;;5006225;28;21689;-76
2024/02/21 05:21:45;;;;;;;1.65;0.55;;;5.20;83.80;;;;;;5007241;28;20030;-76
2024/02/21 05:24:11;;;;;;;0.90;0.35;;;5.20;84.10;;;;;;5005787;28;20119;-76
2024/02/21 05:26:37;;;;;;;1.45;0.57;;;5.20;84.20;;;;;;5004918;28;20777;-76
2024/02/21 05:29:03;;;;;;;1.73;0.52;;;5.30;84.30;;;;;;5010283;28;20068;-75
2024/02/21 05:31:52;;;;;;;0.63;0.40;;;4.70;86.00;;;;;;5010810;28;20037;-75
2024/02/21 05:34:21;;;;;;;1.90;0.75;;;4.50;86.20;;;;;;5008980;28;20167;-76
2024/02/21 05:36:49;;;;;;;0.88;0.40;;;4.80;85.20;;;;;;5008014;28;20629;-75
2024/02/21 05:39:16;;;;;;;1.60;0.40;;;4.60;85.90;;;;;;5010476;28;20057;-76
2024/02/21 05:41:42;;;;;;;0.75;0.50;;;4.60;86.00;;;;;;5009265;28;20493;-76
2024/02/21 05:44:08;;;;;;;1.83;0.65;;;4.70;85.60;;;;;;5008559;28;20037;-76
2024/02/21 05:46:34;;;;;;;1.15;0.40;;;4.70;85.30;;;;;;5008880;28;20513;-76
2024/02/21 05:48:59;;;;;;;6.07;0.57;;;5.00;84.80;;;;;;5009631;28;20037;-76
2024/02/21 05:51:25;;;;;;;1.23;0.40;;;4.60;85.50;;;;;;5007989;28;20053;-76
2024/02/21 05:53:51;;;;;;;1.50;0.47;;;4.70;85.40;;;;;;5009729;28;20116;-76
2024/02/21 05:56:18;;;;;;;2.17;1.20;;;4.90;84.60;;;;;;5006963;28;20037;-78
2024/02/21 05:58:43;;;;;;;1.48;0.40;;;4.80;85.30;;;;;;5009254;28;20025;-76
2024/02/21 06:01:09;;;;;;;0.85;0.50;;;4.80;85.20;;;;;;5009596;28;20040;-76
2024/02/21 06:03:36;;;;;;;1.30;0.55;;;4.60;85.60;;;;;;5009214;28;20025;-76
2024/02/21 06:06:02;;;;;;;1.65;0.80;;;4.80;84.80;;;;;;5009015;28;20048;-76
2024/02/21 06:08:28;;;;;;;3.00;0.60;;;4.70;85.30;;;;;;5008940;28;20129;-78
2024/02/21 06:10:56;;;;;;;0.77;0.40;;;4.60;85.30;;;;;;5008507;28;20057;-76
2024/02/21 06:13:23;;;;;;;1.52;0.30;;;4.40;85.90;;;;;;5007115;28;20207;-76
2024/02/21 06:15:50;;;;;;;1.85;0.77;;;4.10;87.00;;;;;;5008406;28;20568;-75
2024/02/21 06:18:19;;;;;;;1.45;0.57;;;4.00;87.90;;;;;;5014646;28;20045;-76
2024/02/21 06:20:48;;;;;;;2.40;0.50;;;4.20;87.10;;;;;;5007998;28;20037;-77
2024/02/21 06:23:16;;;;;;;2.20;0.32;;;4.60;86.60;;;;;;5014024;28;20565;-77
2024/02/21 06:25:42;;;;;;;0.95;0.40;;;4.70;87.40;;;;;;5012285;28;20574;-77
2024/02/21 06:28:08;;;;;;;1.52;0.65;;;4.60;85.90;;;;;;5008778;28;20033;-78
2024/02/21 06:30:34;;;;;;;2.83;0.90;;;4.60;85.30;;;;;;5008509;28;20094;-79
2024/02/21 06:33:00;;;;;;;1.20;0.47;;;4.80;85.60;;;;;;5007749;28;20024;-79
2024/02/21 06:35:26;;;;;;;1.92;0.50;;;4.40;86.30;;;;;;5007137;28;20693;-79
2024/02/21 06:37:52;;;;;;;1.30;0.63;;;4.20;87.10;;;;;;5005475;28;20037;-79
2024/02/21 06:40:22;;;;;;;2.42;0.80;;;4.10;88.10;;;;;;5007533;28;20037;-79
2024/02/21 06:42:48;;;;;;;1.88;0.80;;;4.10;87.30;;;;;;5008824;28;20380;-78
2024/02/21 06:45:14;;;;;;;2.03;0.50;;;4.30;86.70;;;;;;5008472;28;20038;-80
2024/02/21 06:47:39;;;;;;;0.75;0.50;;;4.50;86.20;;;;;;5006140;28;20585;-80
2024/02/21 06:50:05;;;;;;;1.23;0.60;;;4.60;86.00;;;;;;5009495;28;20060;-79
2024/02/21 06:52:31;;;;;;;1.08;0.47;;;4.60;86.10;;;;;;5008042;28;20033;-80
2024/02/21 06:54:57;;;;;;;1.45;0.50;;;4.60;86.20;;;;;;5007853;28;20083;-79
2024/02/21 06:57:23;;;;;;;1.20;0.68;;;4.40;86.70;;;;;;5007138;28;20033;-79
2024/02/21 06:59:48;;;;;;;2.80;0.93;;;4.50;86.90;;;;;;5007633;28;20479;-80
2024/02/21 07:02:14;;;;;;;2.78;0.70;;;4.50;86.60;;;;;;5008242;28;20033;-79
2024/02/21 07:04:39;;;;;;;2.08;0.75;;;4.40;87.40;;;;;;5008692;28;20102;-80
2024/02/21 07:07:05;;;;;;;2.65;0.88;;;4.30;87.30;;;;;;5005831;28;20033;-79
2024/02/21 07:09:31;;;;;;;1.15;0.60;;;4.40;87.60;;;;;;5007336;28;20077;-80
2024/02/21 07:11:58;;;;;;;1.30;0.50;;;4.50;86.90;;;;;;5008286;28;20033;-80
2024/02/21 07:14:25;;;;;;;0.88;0.40;;;4.40;87.60;;;;;;5007738;28;20507;-79
2024/02/21 07:16:50;;;;;;;2.15;0.68;;;4.40;87.20;;;;;;5007375;28;20038;-79
2024/02/21 07:19:16;;;;;;;1.98;0.80;;;4.10;88.20;;;;;;5008231;28;20048;-79
2024/02/21 07:21:42;;;;;;;2.08;0.70;;;4.40;87.70;;;;;;5006307;28;20029;-79
2024/02/21 07:24:08;;;;;;;2.65;0.65;;;4.50;87.50;;;;;;5005449;28;20203;-79
2024/02/21 07:26:34;;;;;;;2.33;0.77;;;4.40;88.40;;;;;;5004883;28;20046;-79
2024/02/21 07:29:00;;;;;;;2.65;1.15;;;4.50;88.00;;;;;;5007817;28;20532;-78
2024/02/21 07:31:25;;;;;;;4.43;1.02;;;4.50;88.20;;;;;;5007346;28;20086;-78
2024/02/21 07:33:51;;;;;;;1.95;0.70;;;4.60;87.70;;;;;;5006257;28;20474;-79
2024/02/21 07:36:33;;;;;;;1.77;0.60;;;4.70;87.60;;;;;;5007930;28;20045;-79
2024/02/21 07:38:59;;;;;;;1.20;0.40;;;4.80;87.30;;;;;;5008212;28;20491;-79
2024/02/21 07:41:30;;;;;;;1.83;0.55;;;4.80;87.20;;;;;;5007628;28;20091;-79
2024/02/21 07:43:56;;;;;;;1.17;0.55;;;4.80;86.90;;;;;;5005904;28;20040;-79
2024/02/21 07:46:21;;;;;;;1.95;0.95;;;4.90;86.70;;;;;;5007584;28;20037;-79
2024/02/21 07:48:47;;;;;;;6.97;1.90;;;4.90;87.00;;;;;;5005309;28;20037;-78
2024/02/21 07:51:13;;;;;;;1.60;0.70;;;4.80;86.80;;;;;;5005592;28;20052;-78
2024/02/21 07:53:44;;;;;;;1.75;0.90;;;4.90;86.70;;;;;;5003672;28;20049;-79
2024/02/21 07:56:14;;;;;;;8.13;0.88;;;5.00;86.60;;;;;;5005997;28;20030;-79
2024/02/21 07:58:40;;;;;;;2.17;0.70;;;5.10;86.60;;;;;;5008210;28;20049;-77
2024/02/21 08:01:06;;;;;;;1.85;0.70;;;5.10;86.60;;;;;;5007521;28;20025;-77
2024/02/21 08:03:31;;;;;;;3.80;0.52;;;5.10;87.90;;;;;;5007204;28;20044;-77
2024/02/21 08:05:57;;;;;;;1.73;0.57;;;5.00;88.30;;;;;;5006457;28;20041;-76
2024/02/21 08:08:23;;;;;;;3.38;0.95;;;4.90;88.90;;;;;;5007754;28;20091;-75
2024/02/21 08:10:52;;;;;;;1.77;0.70;;;5.00;88.20;;;;;;5006242;28;20164;-75
2024/02/21 08:13:17;;;;;;;1.58;0.45;;;5.00;88.00;;;;;;5005760;28;20042;-76
2024/02/21 08:15:43;;;;;;;1.52;0.60;;;5.00;88.20;;;;;;5007517;28;20036;-76
2024/02/21 08:18:09;;;;;;;1.85;0.70;;;5.00;89.20;;;;;;5005869;28;20036;-75
2024/02/21 08:20:35;;;;;;;1.58;0.57;;;5.10;88.70;;;;;;5004874;28;20566;-76
2024/02/21 08:23:01;;;;;;;8.77;3.97;;;5.20;87.80;;;;;;5007825;28;20033;-75
2024/02/21 08:25:26;;;;;;;6.50;2.38;;;5.20;87.90;;;;;;5004867;28;20176;-76
2024/02/21 08:27:57;;;;;;;3.45;1.10;;;5.20;88.80;;;;;;5000250;28;20037;-75
2024/02/21 08:30:22;;;;;;;2.17;0.90;;;5.20;86.90;;;;;;5006767;28;20029;-75
2024/02/21 08:32:48;;;;;;;2.03;0.73;;;5.20;87.00;;;;;;5004763;28;20061;-76
2024/02/21 08:35:14;;;;;;;4.78;1.30;;;5.20;86.80;;;;;;5004682;28;21943;-76
2024/02/21 08:37:40;;;;;;;1.88;0.63;;;5.20;86.90;;;;;;5005898;28;20037;-75
2024/02/21 08:40:08;;;;;;;2.10;0.70;;;5.30;87.60;;;;;;5005962;28;20029;-76
2024/02/21 08:42:38;;;;;;;1.67;0.65;;;5.40;87.40;;;;;;5002493;28;20032;-75
2024/02/21 08:45:04;;;;;;;2.10;0.57;;;5.50;87.80;;;;;;5004884;28;20068;-76
2024/02/21 08:47:30;;;;;;;5.63;2.10;;;5.70;86.40;;;;;;5004726;28;20052;-75
2024/02/21 08:49:56;;;;;;;3.53;1.52;;;5.70;85.40;;;;;;5004574;28;20038;-75
2024/02/21 08:52:22;;;;;;;2.03;1.15;;;5.80;85.20;;;;;;5005722;28;20794;-76
2024/02/21 08:54:47;;;;;;;2.83;1.20;;;5.80;85.80;;;;;;5006009;28;20498;-75
2024/02/21 08:57:15;;;;;;;1.48;0.80;;;6.00;84.80;;;;;;5005467;28;20752;-75
2024/02/21 08:59:41;;;;;;;3.17;0.80;;;6.00;85.40;;;;;;5005046;28;20046;-75
2024/02/21 09:02:08;;;;;;;1.85;0.90;;;6.10;85.10;;;;;;5007285;28;20029;-75
2024/02/21 09:04:34;;;;;;;4.18;0.80;;;6.20;84.70;;;;;;5008577;28;21136;-75
2024/02/21 09:07:00;;;;;;;1.98;0.85;;;6.20;85.30;;;;;;5007338;28;20831;-75
2024/02/21 09:09:25;;;;;;;2.70;0.93;;;6.30;85.40;;;;;;5008244;28;20419;-76
2024/02/21 09:11:51;;;;;;;2.22;0.95;;;6.40;85.80;;;;;;5006058;28;20037;-75
2024/02/21 09:14:17;;;;;;;2.15;0.98;;;6.50;85.90;;;;;;5007055;28;20241;-76
2024/02/21 09:16:43;;;;;;;3.05;0.75;;;6.50;85.00;;;;;;5008002;28;20033;-76
2024/02/21 09:19:10;;;;;;;2.53;1.00;;;6.60;84.70;;;;;;5004744;28;20468;-76
2024/02/21 09:21:37;;;;;;;3.50;1.05;;;6.70;85.30;;;;;;5005282;28;20552;-76
2024/02/21 09:24:03;;;;;;;7.22;5.70;;;6.70;86.10;;;;;;5008426;28;20121;-76
2024/02/21 09:26:28;;;;;;;5.30;3.25;;;6.70;86.40;;;;;;5006355;28;20506;-75
2024/02/21 09:28:54;;;;;;;4.38;2.40;;;6.70;85.50;;;;;;5006492;28;20049;-76
2024/02/21 09:31:20;;;;;;;3.88;1.70;;;6.80;85.10;;;;;;5008152;28;20868;-76
2024/02/21 09:33:45;;;;;;;2.65;1.20;;;6.80;85.90;;;;;;5006095;28;20053;-76
2024/02/21 09:36:11;;;;;;;4.93;1.25;;;6.80;85.40;;;;;;5006619;28;20112;-76
2024/02/21 09:38:37;;;;;;;3.58;1.20;;;6.90;84.10;;;;;;5007027;28;20041;-76
2024/02/21 09:41:18;;;;;;;2.67;1.35;;;6.90;84.80;;;;;;5006752;28;20124;-76
2024/02/21 09:43:48;;;;;;;4.22;1.90;;;7.00;85.20;;;;;;5005600;28;20505;-76
2024/02/21 09:46:18;;;;;;;4.00;3.08;;;7.10;85.40;;;;;;5006095;28;20042;-76
2024/02/21 09:49:03;;;;;;;3.30;1.40;;;7.20;84.90;;;;;;5007276;28;20041;-76
2024/02/21 09:51:32;;;;;;;;;;;7.20;83.70;;;;;;5009246;28;20115;-77
2024/02/21 09:53:58;;;;;;;3.92;1.42;;;7.30;83.50;;;;;;5009210;28;19916;-78
2024/02/21 09:56:23;;;;;;;2.88;1.27;;;7.40;85.20;;;;;;5007920;28;20043;-77
2024/02/21 09:58:49;;;;;;;2.65;0.90;;;7.60;86.50;;;;;;5009165;28;20061;-77
2024/02/21 10:01:16;;;;;;;2.13;0.70;;;7.60;83.60;;;;;;5010472;28;20497;-77
2024/02/21 10:03:43;;;;;;;2.88;1.02;;;7.70;82.30;;;;;;5008989;28;20521;-78
2024/02/21 10:06:09;;;;;;;4.07;1.00;;;7.70;82.60;;;;;;5010372;28;20041;-78
2024/02/21 10:08:35;;;;;;;1.95;0.90;;;7.80;84.10;;;;;;4966263;28;1246277;-78
2024/02/21 10:11:02;;;;;;;2.70;1.08;;;7.80;84.40;;;;;;5009065;28;20033;-77
2024/02/21 10:13:29;;;;;;;1.77;0.80;;;7.90;84.10;;;;;;5013296;28;20084;-77
2024/02/21 10:16:08;;;;;;;8.90;1.13;;;8.00;83.50;;;;;;5012895;28;20072;-76
2024/02/21 10:18:34;;;;;;;3.10;1.02;;;8.00;83.70;;;;;;5011053;28;20040;-77
2024/02/21 10:21:01;;;;;;;3.95;1.17;;;8.00;83.00;;;;;;5010412;28;20748;-76
2024/02/21 10:23:26;;;;;;;2.03;0.93;;;8.10;83.00;;;;;;5012057;28;20029;-76
2024/02/21 10:25:52;;;;;;;2.38;0.80;;;8.20;82.60;;;;;;5010331;28;20065;-77
2024/02/21 10:28:23;;;;;;;3.00;1.33;;;8.50;84.70;;;;;;5010208;28;20037;-77
2024/02/21 10:30:52;;;;;;;3.45;0.90;;;8.60;83.10;;;;;;5010669;28;20121;-77
2024/02/21 10:33:20;;;;;;;2.97;0.80;;;8.70;83.90;;;;;;5012520;28;20069;-77
2024/02/21 10:35:46;;;;;;;3.50;1.15;;;8.90;83.10;;;;;;5010926;28;20029;-77
2024/02/21 10:38:12;;;;;;;2.45;0.98;;;8.80;81.50;;;;;;5010077;28;20037;-76
2024/02/21 10:40:38;;;;;;;3.17;0.80;;;8.90;82.30;;;;;;5010156;28;20036;-77
2024/02/21 10:43:09;;;;;;;1.50;0.60;;;9.00;81.90;;;;;;5009342;28;20033;-77
2024/02/21 10:45:36;;;;;;;3.53;1.58;;;9.10;81.80;;;;;;5010318;28;20118;-76
2024/02/21 10:48:15;;;;;;;3.83;1.08;;;9.20;82.50;;;;;;5011678;28;20888;-76
2024/02/21 10:51:05;;;;;;;3.10;1.15;;;9.20;81.40;;;;;;5011032;28;20081;-77
2024/02/21 10:53:51;;;;;;;4.75;1.08;;;9.20;80.50;;;;;;5012450;28;20119;-76
2024/02/21 10:56:37;;;;;;;4.25;0.65;;;9.30;80.70;;;;;;5010757;28;20785;-77
2024/02/21 10:59:06;;;;;;;2.28;1.05;;;9.20;80.30;;;;;;5009832;28;20029;-77
2024/02/21 11:01:32;;;;;;;2.42;0.90;;;9.20;80.60;;;;;;5012468;28;21256;-77
2024/02/21 11:04:08;;;;;;;1.38;0.60;;;9.30;80.60;;;;;;5011031;28;20368;-77
2024/02/21 11:06:38;;;;;;;2.85;0.70;;;9.40;80.20;;;;;;5008819;28;20049;-77
2024/02/21 11:09:08;;;;;;;1.70;0.73;;;9.50;80.40;;;;;;5009104;28;20063;-77
2024/02/21 11:11:38;;;;;;;4.45;1.02;;;9.60;80.50;;;;;;5010505;28;20677;-78
2024/02/21 11:14:09;;;;;;;1.65;0.80;;;9.80;80.90;;;;;;5012702;28;20064;-78
2024/02/21 11:16:42;;;;;;;2.08;0.93;;;10.10;80.90;;;;;;5010578;28;20455;-77
2024/02/21 11:19:24;;;;;;;2.70;1.00;;;10.40;79.90;;;;;;5013271;28;20040;-79
2024/02/21 11:21:51;;;;;;;1.30;0.55;;;10.50;79.90;;;;;;5012371;28;20584;-77
2024/02/21 11:24:33;;;;;;;1.60;0.50;;;10.60;80.60;;;;;;5010416;28;20102;-76
2024/02/21 11:27:15;;;;;;;1.75;0.75;;;10.70;79.70;;;;;;5012078;28;20045;-76
2024/02/21 11:29:50;;;;;;;5.10;1.70;;;10.70;80.00;;;;;;5012583;28;20033;-78
2024/02/21 11:32:18;;;;;;;3.40;1.10;;;10.90;79.50;;;;;;5010462;28;20071;-78
2024/02/21 11:35:06;;;;;;;3.47;0.82;;;10.90;79.40;;;;;;5010918;28;20075;-78
2024/02/21 11:37:36;;;;;;;4.72;1.42;;;11.00;79.10;;;;;;5010186;28;20033;-77
2024/02/21 11:40:03;;;;;;;4.53;0.75;;;11.10;79.20;;;;;;5011414;28;20107;-77
2024/02/21 11:42:29;;;;;;;2.63;1.00;;;11.10;77.30;;;;;;5013023;28;20094;-77
2024/02/21 11:44:59;;;;;;;3.00;1.00;;;11.30;78.60;;;;;;5010904;28;20095;-77
2024/02/21 11:47:25;;;;;;;3.85;0.70;;;11.40;77.60;;;;;;5009654;28;20041;-77
2024/02/21 11:49:53;;;;;;;2.33;0.85;;;11.40;78.20;;;;;;5011974;28;20037;-77
2024/02/21 11:52:22;;;;;;;2.65;0.80;;;11.70;78.60;;;;;;5008962;28;20158;-74
2024/02/21 11:54:48;;;;;;;3.10;0.65;;;12.00;78.30;;;;;;5008476;28;20470;-76
2024/02/21 11:57:14;;;;;;;2.05;0.80;;;11.90;77.60;;;;;;5009693;28;20135;-75
2024/02/21 11:59:45;;;;;;;2.25;0.60;;;11.70;77.50;;;;;;5010126;28;20037;-76
2024/02/21 12:02:11;;;;;;;3.95;0.70;;;12.00;79.10;;;;;;5006294;28;20100;-76
2024/02/21 12:04:37;;;;;;;2.92;0.70;;;11.80;76.60;;;;;;5005673;28;20513;-76
2024/02/21 12:07:04;;;;;;;2.08;0.80;;;11.80;76.90;;;;;;5005847;28;20041;-76
2024/02/21 12:09:30;;;;;;;2.42;0.75;;;11.70;76.10;;;;;;5005284;28;20911;-76
2024/02/21 12:12:03;;;;;;;1.58;0.50;;;11.80;76.30;;;;;;5005548;28;20041;-77
2024/02/21 12:14:30;;;;;;;2.22;0.57;;;11.90;77.30;;;;;;5006516;28;20476;-76
2024/02/21 12:16:56;;;;;;;3.45;0.70;;;11.90;77.10;;;;;;5004210;28;20029;-76
2024/02/21 12:19:22;;;;;;;1.65;0.68;;;12.00;76.60;;;;;;5003605;28;20045;-76
2024/02/21 12:21:49;;;;;;;1.08;0.70;;;12.20;78.20;;;;;;5007983;28;20036;-76
2024/02/21 12:24:23;;;;;;;1.35;0.68;;;12.50;77.40;;;;;;5004186;28;20391;-75
2024/02/21 12:26:50;;;;;;;2.15;0.55;;;12.70;77.20;;;;;;5006306;28;20045;-76
2024/02/21 12:29:16;;;;;;;3.05;0.60;;;12.80;76.20;;;;;;5003219;28;20478;-76
2024/02/21 12:31:41;;;;;;;2.10;0.70;;;12.70;75.70;;;;;;5006148;28;20083;-76
2024/02/21 12:34:09;;;;;;;2.38;0.68;;;12.50;74.30;;;;;;5004254;28;20425;-75
2024/02/21 12:36:40;;;;;;;2.05;0.50;;;12.60;76.40;;;;;;5003526;28;20049;-76
2024/02/21 12:39:06;;;;;;;1.88;0.38;;;12.60;73.70;;;;;;5004398;28;20800;-75
2024/02/21 12:41:33;;;;;;;3.42;0.73;;;12.50;73.20;;;;;;5006207;28;20029;-75
2024/02/21 12:43:58;;;;;;;1.90;0.65;;;12.30;73.50;;;;;;5003551;28;20036;-75
2024/02/21 12:46:24;;;;;;;2.95;0.65;;;12.40;74.00;;;;;;5005097;28;20045;-76
2024/02/21 12:48:50;;;;;;;2.95;0.52;;;12.60;74.80;;;;;;5005587;28;20029;-75
2024/02/21 12:51:20;;;;;;;3.28;0.93;;;12.60;72.80;;;;;;5003309;28;20193;-75
2024/02/21 12:53:47;;;;;;;2.15;0.63;;;12.80;73.20;;;;;;5003014;28;20041;-75